sensor_id;sensor_type;location;lat;lon;timestamp;P1;durP1;ratioP1;P2;durP2;ratioP2
76336;SDS011;65157;50.082;18.178;2023-04-24T00:00:54;20.60;;;13.00;;
76336;SDS011;65157;50.082;18.178;2023-04-24T00:03:25;18.90;;;12.50;;
76336;SDS011;65157;50.082;18.178;2023-04-24T00:05:52;18.80;;;12.20;;
76336;SDS011;65157;50.082;18.178;2023-04-24T00:08:19;19.40;;;12.00;;
76336;SDS011;65157;50.082;18.178;2023-04-24T00:10:46;20.30;;;12.60;;
76336;SDS011;65157;50.082;18.178;2023-04-24T00:13:12;22.00;;;12.50;;
76336;SDS011;65157;50.082;18.178;2023-04-24T00:15:39;20.30;;;11.30;;
76336;SDS011;65157;50.082;18.178;2023-04-24T00:18:06;18.00;;;12.20;;
76336;SDS011;65157;50.082;18.178;2023-04-24T00:20:32;19.10;;;11.70;;
76336;SDS011;65157;50.082;18.178;2023-04-24T00:23:00;18.10;;;12.00;;
76336;SDS011;65157;50.082;18.178;2023-04-24T00:25:27;22.00;;;12.20;;
76336;SDS011;65157;50.082;18.178;2023-04-24T00:30:20;18.00;;;10.90;;
76336;SDS011;65157;50.082;18.178;2023-04-24T00:32:47;19.10;;;10.90;;
76336;SDS011;65157;50.082;18.178;2023-04-24T00:35:14;20.80;;;10.80;;
76336;SDS011;65157;50.082;18.178;2023-04-24T00:37:40;18.00;;;10.10;;
76336;SDS011;65157;50.082;18.178;2023-04-24T00:40:07;18.00;;;10.40;;
76336;SDS011;65157;50.082;18.178;2023-04-24T00:42:35;20.50;;;10.50;;
76336;SDS011;65157;50.082;18.178;2023-04-24T00:45:01;16.00;;;10.80;;
76336;SDS011;65157;50.082;18.178;2023-04-24T00:47:28;16.80;;;10.50;;
76336;SDS011;65157;50.082;18.178;2023-04-24T00:49:56;18.40;;;10.70;;
76336;SDS011;65157;50.082;18.178;2023-04-24T00:52:25;17.50;;;9.20;;
76336;SDS011;65157;50.082;18.178;2023-04-24T00:57:18;15.20;;;9.10;;
76336;SDS011;65157;50.082;18.178;2023-04-24T00:59:45;15.10;;;10.30;;
76336;SDS011;65157;50.082;18.178;2023-04-24T01:02:12;17.50;;;10.30;;
76336;SDS011;65157;50.082;18.178;2023-04-24T01:04:39;16.40;;;10.60;;
76336;SDS011;65157;50.082;18.178;2023-04-24T01:09:33;17.20;;;10.00;;
76336;SDS011;65157;50.082;18.178;2023-04-24T01:12:01;20.10;;;9.80;;
76336;SDS011;65157;50.082;18.178;2023-04-24T01:14:30;17.90;;;9.80;;
76336;SDS011;65157;50.082;18.178;2023-04-24T01:16:57;16.60;;;10.20;;
76336;SDS011;65157;50.082;18.178;2023-04-24T01:21:50;17.80;;;10.60;;
76336;SDS011;65157;50.082;18.178;2023-04-24T01:24:24;14.00;;;8.90;;
76336;SDS011;65157;50.082;18.178;2023-04-24T01:26:51;17.60;;;10.40;;
76336;SDS011;65157;50.082;18.178;2023-04-24T01:29:18;19.70;;;10.70;;
76336;SDS011;65157;50.082;18.178;2023-04-24T01:31:45;17.80;;;9.80;;
76336;SDS011;65157;50.082;18.178;2023-04-24T01:34:13;16.20;;;8.70;;
76336;SDS011;65157;50.082;18.178;2023-04-24T01:36:40;15.50;;;9.70;;
76336;SDS011;65157;50.082;18.178;2023-04-24T01:39:07;16.20;;;9.20;;
76336;SDS011;65157;50.082;18.178;2023-04-24T01:41:34;12.70;;;8.70;;
76336;SDS011;65157;50.082;18.178;2023-04-24T01:44:01;17.30;;;9.50;;
76336;SDS011;65157;50.082;18.178;2023-04-24T01:46:32;12.80;;;9.00;;
76336;SDS011;65157;50.082;18.178;2023-04-24T01:48:59;15.30;;;9.10;;
76336;SDS011;65157;50.082;18.178;2023-04-24T01:51:27;12.50;;;8.60;;
76336;SDS011;65157;50.082;18.178;2023-04-24T01:53:53;15.70;;;9.80;;
76336;SDS011;65157;50.082;18.178;2023-04-24T01:56:22;11.70;;;8.00;;
76336;SDS011;65157;50.082;18.178;2023-04-24T01:58:51;14.20;;;8.50;;
76336;SDS011;65157;50.082;18.178;2023-04-24T02:01:20;14.70;;;8.90;;
76336;SDS011;65157;50.082;18.178;2023-04-24T02:03:47;10.90;;;7.30;;
76336;SDS011;65157;50.082;18.178;2023-04-24T02:08:41;15.90;;;8.80;;
76336;SDS011;65157;50.082;18.178;2023-04-24T02:11:08;11.10;;;7.10;;
76336;SDS011;65157;50.082;18.178;2023-04-24T02:13:36;11.10;;;7.70;;
76336;SDS011;65157;50.082;18.178;2023-04-24T02:16:03;11.80;;;7.50;;
76336;SDS011;65157;50.082;18.178;2023-04-24T02:20:58;8.50;;;6.20;;
76336;SDS011;65157;50.082;18.178;2023-04-24T02:23:24;11.80;;;7.60;;
76336;SDS011;65157;50.082;18.178;2023-04-24T02:25:51;12.10;;;7.20;;
76336;SDS011;65157;50.082;18.178;2023-04-24T02:28:18;11.80;;;7.10;;
76336;SDS011;65157;50.082;18.178;2023-04-24T02:30:45;12.50;;;8.40;;
76336;SDS011;65157;50.082;18.178;2023-04-24T02:33:11;10.60;;;6.60;;
76336;SDS011;65157;50.082;18.178;2023-04-24T02:35:38;11.50;;;7.30;;
76336;SDS011;65157;50.082;18.178;2023-04-24T02:38:05;11.80;;;7.00;;
76336;SDS011;65157;50.082;18.178;2023-04-24T02:40:31;12.30;;;6.90;;
76336;SDS011;65157;50.082;18.178;2023-04-24T02:42:58;11.70;;;6.30;;
76336;SDS011;65157;50.082;18.178;2023-04-24T02:45:25;10.60;;;7.20;;
76336;SDS011;65157;50.082;18.178;2023-04-24T02:47:52;11.20;;;6.10;;
76336;SDS011;65157;50.082;18.178;2023-04-24T02:50:19;10.30;;;6.40;;
76336;SDS011;65157;50.082;18.178;2023-04-24T02:52:45;10.10;;;6.30;;
76336;SDS011;65157;50.082;18.178;2023-04-24T02:55:12;11.50;;;6.60;;
76336;SDS011;65157;50.082;18.178;2023-04-24T02:57:39;12.30;;;7.20;;
76336;SDS011;65157;50.082;18.178;2023-04-24T03:00:06;11.10;;;7.10;;
76336;SDS011;65157;50.082;18.178;2023-04-24T03:02:33;12.50;;;7.70;;
76336;SDS011;65157;50.082;18.178;2023-04-24T03:05:00;11.40;;;7.50;;
76336;SDS011;65157;50.082;18.178;2023-04-24T03:07:27;15.50;;;8.00;;
76336;SDS011;65157;50.082;18.178;2023-04-24T03:09:53;13.90;;;7.40;;
76336;SDS011;65157;50.082;18.178;2023-04-24T03:12:20;15.80;;;9.10;;
76336;SDS011;65157;50.082;18.178;2023-04-24T03:14:47;13.80;;;8.80;;
76336;SDS011;65157;50.082;18.178;2023-04-24T03:17:14;14.00;;;8.40;;
76336;SDS011;65157;50.082;18.178;2023-04-24T03:19:41;14.10;;;9.00;;
76336;SDS011;65157;50.082;18.178;2023-04-24T03:22:07;12.80;;;7.80;;
76336;SDS011;65157;50.082;18.178;2023-04-24T03:24:34;14.00;;;9.10;;
76336;SDS011;65157;50.082;18.178;2023-04-24T03:27:01;13.30;;;7.80;;
76336;SDS011;65157;50.082;18.178;2023-04-24T03:29:27;15.50;;;8.30;;
76336;SDS011;65157;50.082;18.178;2023-04-24T03:31:54;15.10;;;8.60;;
76336;SDS011;65157;50.082;18.178;2023-04-24T03:34:21;11.80;;;7.10;;
76336;SDS011;65157;50.082;18.178;2023-04-24T03:36:48;12.60;;;7.70;;
76336;SDS011;65157;50.082;18.178;2023-04-24T03:39:16;14.30;;;8.30;;
76336;SDS011;65157;50.082;18.178;2023-04-24T03:41:43;12.80;;;8.10;;
76336;SDS011;65157;50.082;18.178;2023-04-24T03:44:10;13.70;;;7.80;;
76336;SDS011;65157;50.082;18.178;2023-04-24T03:46:36;12.10;;;7.30;;
76336;SDS011;65157;50.082;18.178;2023-04-24T03:49:06;10.70;;;7.30;;
76336;SDS011;65157;50.082;18.178;2023-04-24T03:51:33;9.90;;;7.20;;
76336;SDS011;65157;50.082;18.178;2023-04-24T03:54:00;12.30;;;7.50;;
76336;SDS011;65157;50.082;18.178;2023-04-24T03:56:35;10.00;;;7.80;;
76336;SDS011;65157;50.082;18.178;2023-04-24T03:59:01;13.10;;;6.50;;
76336;SDS011;65157;50.082;18.178;2023-04-24T04:01:28;14.60;;;7.20;;
76336;SDS011;65157;50.082;18.178;2023-04-24T04:03:55;14.20;;;7.10;;
76336;SDS011;65157;50.082;18.178;2023-04-24T04:06:21;12.80;;;7.50;;
76336;SDS011;65157;50.082;18.178;2023-04-24T04:08:48;12.00;;;7.50;;
76336;SDS011;65157;50.082;18.178;2023-04-24T04:11:15;12.80;;;7.60;;
76336;SDS011;65157;50.082;18.178;2023-04-24T04:13:42;11.20;;;7.50;;
76336;SDS011;65157;50.082;18.178;2023-04-24T04:16:17;11.50;;;7.30;;
76336;SDS011;65157;50.082;18.178;2023-04-24T04:18:44;11.40;;;7.00;;
76336;SDS011;65157;50.082;18.178;2023-04-24T04:23:37;10.60;;;6.80;;
76336;SDS011;65157;50.082;18.178;2023-04-24T04:26:04;13.40;;;7.50;;
76336;SDS011;65157;50.082;18.178;2023-04-24T04:28:31;11.70;;;6.50;;
76336;SDS011;65157;50.082;18.178;2023-04-24T04:33:24;12.50;;;6.60;;
76336;SDS011;65157;50.082;18.178;2023-04-24T04:38:18;10.90;;;6.20;;
76336;SDS011;65157;50.082;18.178;2023-04-24T04:40:45;10.10;;;6.20;;
76336;SDS011;65157;50.082;18.178;2023-04-24T04:43:12;9.50;;;6.50;;
76336;SDS011;65157;50.082;18.178;2023-04-24T04:45:39;10.60;;;6.60;;
76336;SDS011;65157;50.082;18.178;2023-04-24T04:48:09;11.10;;;6.30;;
76336;SDS011;65157;50.082;18.178;2023-04-24T04:50:36;12.30;;;7.20;;
76336;SDS011;65157;50.082;18.178;2023-04-24T04:53:03;16.10;;;7.60;;
76336;SDS011;65157;50.082;18.178;2023-04-24T04:57:56;11.70;;;7.00;;
76336;SDS011;65157;50.082;18.178;2023-04-24T05:00:24;12.40;;;7.90;;
76336;SDS011;65157;50.082;18.178;2023-04-24T05:02:51;11.80;;;7.80;;
76336;SDS011;65157;50.082;18.178;2023-04-24T05:05:23;12.10;;;7.90;;
76336;SDS011;65157;50.082;18.178;2023-04-24T05:07:50;11.80;;;6.90;;
76336;SDS011;65157;50.082;18.178;2023-04-24T05:10:17;12.40;;;7.40;;
76336;SDS011;65157;50.082;18.178;2023-04-24T05:12:43;10.90;;;7.10;;
76336;SDS011;65157;50.082;18.178;2023-04-24T05:15:10;10.00;;;6.90;;
76336;SDS011;65157;50.082;18.178;2023-04-24T05:20:06;11.80;;;6.50;;
76336;SDS011;65157;50.082;18.178;2023-04-24T05:22:35;9.80;;;7.10;;
76336;SDS011;65157;50.082;18.178;2023-04-24T05:25:03;12.00;;;6.70;;
76336;SDS011;65157;50.082;18.178;2023-04-24T05:27:31;10.80;;;7.00;;
76336;SDS011;65157;50.082;18.178;2023-04-24T05:32:24;9.00;;;5.70;;
76336;SDS011;65157;50.082;18.178;2023-04-24T05:34:51;8.00;;;6.20;;
76336;SDS011;65157;50.082;18.178;2023-04-24T05:39:45;7.70;;;5.50;;
76336;SDS011;65157;50.082;18.178;2023-04-24T05:42:11;10.40;;;6.90;;
76336;SDS011;65157;50.082;18.178;2023-04-24T05:44:43;10.50;;;6.90;;
76336;SDS011;65157;50.082;18.178;2023-04-24T05:47:15;12.50;;;7.70;;
76336;SDS011;65157;50.082;18.178;2023-04-24T05:49:44;13.00;;;7.20;;
76336;SDS011;65157;50.082;18.178;2023-04-24T05:52:11;11.30;;;7.30;;
76336;SDS011;65157;50.082;18.178;2023-04-24T05:54:38;11.60;;;7.40;;
76336;SDS011;65157;50.082;18.178;2023-04-24T05:57:05;15.00;;;8.60;;
76336;SDS011;65157;50.082;18.178;2023-04-24T05:59:32;15.00;;;7.10;;
76336;SDS011;65157;50.082;18.178;2023-04-24T06:01:58;13.00;;;8.40;;
76336;SDS011;65157;50.082;18.178;2023-04-24T06:04:25;14.20;;;7.50;;
76336;SDS011;65157;50.082;18.178;2023-04-24T06:06:51;11.40;;;7.50;;
76336;SDS011;65157;50.082;18.178;2023-04-24T06:09:18;13.30;;;8.00;;
76336;SDS011;65157;50.082;18.178;2023-04-24T06:11:45;17.70;;;8.30;;
76336;SDS011;65157;50.082;18.178;2023-04-24T06:14:12;12.10;;;7.20;;
76336;SDS011;65157;50.082;18.178;2023-04-24T06:16:45;10.90;;;7.60;;
76336;SDS011;65157;50.082;18.178;2023-04-24T06:19:21;18.90;;;8.70;;
76336;SDS011;65157;50.082;18.178;2023-04-24T06:21:48;12.00;;;7.20;;
76336;SDS011;65157;50.082;18.178;2023-04-24T06:24:14;13.10;;;7.70;;
76336;SDS011;65157;50.082;18.178;2023-04-24T06:26:41;12.30;;;7.40;;
76336;SDS011;65157;50.082;18.178;2023-04-24T06:29:11;10.10;;;7.50;;
76336;SDS011;65157;50.082;18.178;2023-04-24T06:31:38;10.50;;;6.70;;
76336;SDS011;65157;50.082;18.178;2023-04-24T06:34:04;12.70;;;8.10;;
76336;SDS011;65157;50.082;18.178;2023-04-24T06:38:58;10.70;;;6.30;;
76336;SDS011;65157;50.082;18.178;2023-04-24T06:41:24;7.90;;;6.10;;
76336;SDS011;65157;50.082;18.178;2023-04-24T06:43:51;8.60;;;5.60;;
76336;SDS011;65157;50.082;18.178;2023-04-24T06:48:49;11.40;;;6.20;;
76336;SDS011;65157;50.082;18.178;2023-04-24T06:51:16;10.90;;;6.40;;
76336;SDS011;65157;50.082;18.178;2023-04-24T06:56:12;8.00;;;6.30;;
76336;SDS011;65157;50.082;18.178;2023-04-24T06:58:38;10.10;;;6.10;;
76336;SDS011;65157;50.082;18.178;2023-04-24T07:01:05;8.30;;;5.70;;
76336;SDS011;65157;50.082;18.178;2023-04-24T07:05:58;8.40;;;5.10;;
76336;SDS011;65157;50.082;18.178;2023-04-24T07:08:25;9.70;;;5.40;;
76336;SDS011;65157;50.082;18.178;2023-04-24T07:13:19;9.40;;;6.10;;
76336;SDS011;65157;50.082;18.178;2023-04-24T07:15:45;9.10;;;5.70;;
76336;SDS011;65157;50.082;18.178;2023-04-24T07:20:51;8.40;;;6.40;;
76336;SDS011;65157;50.082;18.178;2023-04-24T07:23:20;9.70;;;6.10;;
76336;SDS011;65157;50.082;18.178;2023-04-24T07:28:22;13.40;;;7.90;;
76336;SDS011;65157;50.082;18.178;2023-04-24T07:30:49;8.70;;;4.90;;
76336;SDS011;65157;50.082;18.178;2023-04-24T07:33:16;8.00;;;5.10;;
76336;SDS011;65157;50.082;18.178;2023-04-24T07:35:46;7.50;;;5.10;;
76336;SDS011;65157;50.082;18.178;2023-04-24T07:38:12;9.60;;;4.80;;
76336;SDS011;65157;50.082;18.178;2023-04-24T07:40:39;6.20;;;5.10;;
76336;SDS011;65157;50.082;18.178;2023-04-24T07:45:33;5.40;;;4.10;;
76336;SDS011;65157;50.082;18.178;2023-04-24T07:50:26;5.40;;;4.80;;
76336;SDS011;65157;50.082;18.178;2023-04-24T07:55:22;6.10;;;3.70;;
76336;SDS011;65157;50.082;18.178;2023-04-24T07:57:49;6.80;;;4.20;;
76336;SDS011;65157;50.082;18.178;2023-04-24T08:00:18;6.30;;;4.80;;
76336;SDS011;65157;50.082;18.178;2023-04-24T08:02:46;7.30;;;4.70;;
76336;SDS011;65157;50.082;18.178;2023-04-24T08:07:39;5.50;;;4.10;;
76336;SDS011;65157;50.082;18.178;2023-04-24T08:10:06;5.90;;;4.20;;
76336;SDS011;65157;50.082;18.178;2023-04-24T08:12:37;7.20;;;4.60;;
76336;SDS011;65157;50.082;18.178;2023-04-24T08:15:04;7.70;;;4.10;;
76336;SDS011;65157;50.082;18.178;2023-04-24T08:17:33;6.40;;;4.10;;
76336;SDS011;65157;50.082;18.178;2023-04-24T08:20:04;5.10;;;4.50;;
76336;SDS011;65157;50.082;18.178;2023-04-24T08:22:31;6.20;;;4.30;;
76336;SDS011;65157;50.082;18.178;2023-04-24T08:24:59;4.70;;;3.90;;
76336;SDS011;65157;50.082;18.178;2023-04-24T08:27:26;5.20;;;3.60;;
76336;SDS011;65157;50.082;18.178;2023-04-24T08:29:53;5.10;;;3.90;;
76336;SDS011;65157;50.082;18.178;2023-04-24T08:32:20;4.70;;;3.90;;
76336;SDS011;65157;50.082;18.178;2023-04-24T08:34:47;5.70;;;3.90;;
76336;SDS011;65157;50.082;18.178;2023-04-24T08:37:16;6.20;;;4.40;;
76336;SDS011;65157;50.082;18.178;2023-04-24T08:39:43;5.40;;;4.20;;
76336;SDS011;65157;50.082;18.178;2023-04-24T08:42:10;5.80;;;4.20;;
76336;SDS011;65157;50.082;18.178;2023-04-24T08:44:38;4.90;;;4.40;;
76336;SDS011;65157;50.082;18.178;2023-04-24T08:47:08;7.80;;;4.20;;
76336;SDS011;65157;50.082;18.178;2023-04-24T08:49:36;6.30;;;4.00;;
76336;SDS011;65157;50.082;18.178;2023-04-24T08:52:06;4.20;;;3.80;;
76336;SDS011;65157;50.082;18.178;2023-04-24T08:54:36;6.30;;;4.40;;
76336;SDS011;65157;50.082;18.178;2023-04-24T08:57:05;4.60;;;3.70;;
76336;SDS011;65157;50.082;18.178;2023-04-24T08:59:34;4.40;;;3.70;;
76336;SDS011;65157;50.082;18.178;2023-04-24T09:02:06;3.90;;;3.50;;
76336;SDS011;65157;50.082;18.178;2023-04-24T09:04:39;6.40;;;4.20;;
76336;SDS011;65157;50.082;18.178;2023-04-24T09:07:07;5.10;;;3.90;;
76336;SDS011;65157;50.082;18.178;2023-04-24T09:09:36;4.00;;;3.60;;
76336;SDS011;65157;50.082;18.178;2023-04-24T09:12:04;5.90;;;4.10;;
76336;SDS011;65157;50.082;18.178;2023-04-24T09:14:31;4.70;;;4.20;;
76336;SDS011;65157;50.082;18.178;2023-04-24T09:16:59;4.00;;;3.60;;
76336;SDS011;65157;50.082;18.178;2023-04-24T09:19:26;7.20;;;3.70;;
76336;SDS011;65157;50.082;18.178;2023-04-24T09:21:53;5.90;;;4.50;;
76336;SDS011;65157;50.082;18.178;2023-04-24T09:24:20;6.30;;;3.70;;
76336;SDS011;65157;50.082;18.178;2023-04-24T09:26:48;4.70;;;3.90;;
76336;SDS011;65157;50.082;18.178;2023-04-24T09:29:21;5.00;;;4.30;;
76336;SDS011;65157;50.082;18.178;2023-04-24T09:31:48;6.70;;;4.30;;
76336;SDS011;65157;50.082;18.178;2023-04-24T09:34:18;5.20;;;4.10;;
76336;SDS011;65157;50.082;18.178;2023-04-24T09:36:51;5.80;;;4.80;;
76336;SDS011;65157;50.082;18.178;2023-04-24T09:39:20;5.40;;;4.80;;
76336;SDS011;65157;50.082;18.178;2023-04-24T09:44:21;6.10;;;4.70;;
76336;SDS011;65157;50.082;18.178;2023-04-24T09:46:50;5.50;;;4.40;;
76336;SDS011;65157;50.082;18.178;2023-04-24T09:51:51;6.30;;;4.50;;
76336;SDS011;65157;50.082;18.178;2023-04-24T09:54:31;4.50;;;3.70;;
76336;SDS011;65157;50.082;18.178;2023-04-24T09:56:58;4.50;;;3.90;;
76336;SDS011;65157;50.082;18.178;2023-04-24T09:59:25;5.10;;;3.90;;
76336;SDS011;65157;50.082;18.178;2023-04-24T10:01:52;5.00;;;3.50;;
76336;SDS011;65157;50.082;18.178;2023-04-24T10:04:23;5.60;;;5.00;;
76336;SDS011;65157;50.082;18.178;2023-04-24T10:06:53;8.60;;;5.10;;
76336;SDS011;65157;50.082;18.178;2023-04-24T10:09:25;5.00;;;4.60;;
76336;SDS011;65157;50.082;18.178;2023-04-24T10:11:53;5.10;;;4.30;;
76336;SDS011;65157;50.082;18.178;2023-04-24T10:14:26;5.20;;;4.30;;
76336;SDS011;65157;50.082;18.178;2023-04-24T10:16:53;5.20;;;4.70;;
76336;SDS011;65157;50.082;18.178;2023-04-24T10:19:21;4.30;;;3.50;;
76336;SDS011;65157;50.082;18.178;2023-04-24T10:21:51;5.40;;;3.40;;
76336;SDS011;65157;50.082;18.178;2023-04-24T10:24:18;5.20;;;3.70;;
76336;SDS011;65157;50.082;18.178;2023-04-24T10:29:13;4.70;;;4.30;;
76336;SDS011;65157;50.082;18.178;2023-04-24T10:31:41;7.80;;;4.60;;
76336;SDS011;65157;50.082;18.178;2023-04-24T10:34:08;6.40;;;4.80;;
76336;SDS011;65157;50.082;18.178;2023-04-24T10:36:38;5.00;;;4.50;;
76336;SDS011;65157;50.082;18.178;2023-04-24T10:39:11;4.60;;;4.20;;
76336;SDS011;65157;50.082;18.178;2023-04-24T10:41:40;4.40;;;4.00;;
76336;SDS011;65157;50.082;18.178;2023-04-24T10:44:07;5.70;;;4.20;;
76336;SDS011;65157;50.082;18.178;2023-04-24T10:46:38;6.40;;;4.50;;
76336;SDS011;65157;50.082;18.178;2023-04-24T10:49:08;5.10;;;4.50;;
76336;SDS011;65157;50.082;18.178;2023-04-24T10:51:45;6.40;;;5.00;;
76336;SDS011;65157;50.082;18.178;2023-04-24T11:00:27;8.10;;;4.90;;
76336;SDS011;65157;50.082;18.178;2023-04-24T11:02:47;5.40;;;4.90;;
76336;SDS011;65157;50.082;18.178;2023-04-24T11:05:15;6.80;;;5.40;;
76336;SDS011;65157;50.082;18.178;2023-04-24T11:10:47;7.40;;;5.30;;
76336;SDS011;65157;50.082;18.178;2023-04-24T11:13:22;8.00;;;6.20;;
76336;SDS011;65157;50.082;18.178;2023-04-24T11:18:41;6.40;;;5.20;;
76336;SDS011;65157;50.082;18.178;2023-04-24T11:21:12;6.20;;;5.40;;
76336;SDS011;65157;50.082;18.178;2023-04-24T11:23:39;7.40;;;5.10;;
76336;SDS011;65157;50.082;18.178;2023-04-24T11:26:10;5.70;;;4.60;;
76336;SDS011;65157;50.082;18.178;2023-04-24T11:28:46;6.00;;;5.00;;
76336;SDS011;65157;50.082;18.178;2023-04-24T11:31:35;10.50;;;5.40;;
76336;SDS011;65157;50.082;18.178;2023-04-24T11:36:33;5.90;;;5.30;;
76336;SDS011;65157;50.082;18.178;2023-04-24T11:39:01;8.00;;;5.90;;
76336;SDS011;65157;50.082;18.178;2023-04-24T11:41:28;7.60;;;6.20;;
76336;SDS011;65157;50.082;18.178;2023-04-24T11:43:55;6.30;;;5.50;;
76336;SDS011;65157;50.082;18.178;2023-04-24T11:46:26;6.80;;;5.10;;
76336;SDS011;65157;50.082;18.178;2023-04-24T11:48:54;7.10;;;5.90;;
76336;SDS011;65157;50.082;18.178;2023-04-24T11:51:22;7.80;;;6.00;;
76336;SDS011;65157;50.082;18.178;2023-04-24T11:53:49;8.90;;;6.80;;
76336;SDS011;65157;50.082;18.178;2023-04-24T11:56:23;9.80;;;6.90;;
76336;SDS011;65157;50.082;18.178;2023-04-24T11:58:54;10.10;;;6.30;;
76336;SDS011;65157;50.082;18.178;2023-04-24T12:01:20;7.80;;;6.30;;
76336;SDS011;65157;50.082;18.178;2023-04-24T12:03:50;10.80;;;7.20;;
76336;SDS011;65157;50.082;18.178;2023-04-24T12:06:17;8.50;;;6.00;;
76336;SDS011;65157;50.082;18.178;2023-04-24T12:08:47;6.30;;;5.40;;
76336;SDS011;65157;50.082;18.178;2023-04-24T12:11:14;6.70;;;5.70;;
76336;SDS011;65157;50.082;18.178;2023-04-24T12:13:43;9.60;;;6.10;;
76336;SDS011;65157;50.082;18.178;2023-04-24T12:16:10;7.40;;;4.70;;
76336;SDS011;65157;50.082;18.178;2023-04-24T12:18:41;7.10;;;6.00;;
76336;SDS011;65157;50.082;18.178;2023-04-24T12:21:14;5.60;;;4.80;;
76336;SDS011;65157;50.082;18.178;2023-04-24T12:23:42;7.80;;;5.40;;
76336;SDS011;65157;50.082;18.178;2023-04-24T12:26:10;6.40;;;5.00;;
76336;SDS011;65157;50.082;18.178;2023-04-24T12:28:39;7.50;;;5.60;;
76336;SDS011;65157;50.082;18.178;2023-04-24T12:31:06;7.90;;;5.50;;
76336;SDS011;65157;50.082;18.178;2023-04-24T12:33:34;7.00;;;5.30;;
76336;SDS011;65157;50.082;18.178;2023-04-24T12:36:02;7.20;;;6.30;;
76336;SDS011;65157;50.082;18.178;2023-04-24T12:38:29;8.10;;;6.70;;
76336;SDS011;65157;50.082;18.178;2023-04-24T12:41:11;8.10;;;5.60;;
76336;SDS011;65157;50.082;18.178;2023-04-24T12:43:49;7.90;;;6.10;;
76336;SDS011;65157;50.082;18.178;2023-04-24T12:46:18;6.20;;;5.60;;
76336;SDS011;65157;50.082;18.178;2023-04-24T12:48:45;7.30;;;5.50;;
76336;SDS011;65157;50.082;18.178;2023-04-24T12:51:11;6.30;;;5.20;;
76336;SDS011;65157;50.082;18.178;2023-04-24T12:56:04;7.00;;;5.40;;
76336;SDS011;65157;50.082;18.178;2023-04-24T12:58:37;8.10;;;5.80;;
76336;SDS011;65157;50.082;18.178;2023-04-24T13:01:04;8.60;;;5.40;;
76336;SDS011;65157;50.082;18.178;2023-04-24T13:03:35;6.90;;;6.00;;
76336;SDS011;65157;50.082;18.178;2023-04-24T13:06:01;7.00;;;6.30;;
76336;SDS011;65157;50.082;18.178;2023-04-24T13:08:31;6.40;;;5.40;;
76336;SDS011;65157;50.082;18.178;2023-04-24T13:10:58;8.80;;;7.10;;
76336;SDS011;65157;50.082;18.178;2023-04-24T13:13:26;9.10;;;7.30;;
76336;SDS011;65157;50.082;18.178;2023-04-24T13:15:53;6.20;;;5.60;;
76336;SDS011;65157;50.082;18.178;2023-04-24T13:18:19;7.70;;;6.40;;
76336;SDS011;65157;50.082;18.178;2023-04-24T13:20:47;6.30;;;5.20;;
76336;SDS011;65157;50.082;18.178;2023-04-24T13:23:14;6.70;;;6.10;;
76336;SDS011;65157;50.082;18.178;2023-04-24T13:25:46;7.00;;;6.30;;
76336;SDS011;65157;50.082;18.178;2023-04-24T13:28:12;9.60;;;6.90;;
76336;SDS011;65157;50.082;18.178;2023-04-24T13:33:06;8.30;;;6.60;;
76336;SDS011;65157;50.082;18.178;2023-04-24T13:37:59;11.00;;;7.00;;
76336;SDS011;65157;50.082;18.178;2023-04-24T13:40:26;9.20;;;7.00;;
76336;SDS011;65157;50.082;18.178;2023-04-24T13:42:53;9.30;;;6.80;;
76336;SDS011;65157;50.082;18.178;2023-04-24T13:45:21;7.20;;;6.30;;
76336;SDS011;65157;50.082;18.178;2023-04-24T13:47:48;13.00;;;7.90;;
76336;SDS011;65157;50.082;18.178;2023-04-24T13:50:14;7.90;;;6.20;;
76336;SDS011;65157;50.082;18.178;2023-04-24T13:55:08;8.00;;;6.00;;
76336;SDS011;65157;50.082;18.178;2023-04-24T13:57:35;8.40;;;6.30;;
76336;SDS011;65157;50.082;18.178;2023-04-24T14:00:02;8.90;;;6.30;;
76336;SDS011;65157;50.082;18.178;2023-04-24T14:02:30;7.20;;;6.20;;
76336;SDS011;65157;50.082;18.178;2023-04-24T14:07:23;6.80;;;6.00;;
76336;SDS011;65157;50.082;18.178;2023-04-24T14:09:50;6.80;;;5.60;;
76336;SDS011;65157;50.082;18.178;2023-04-24T14:12:21;7.20;;;6.50;;
76336;SDS011;65157;50.082;18.178;2023-04-24T14:14:48;8.00;;;6.70;;
76336;SDS011;65157;50.082;18.178;2023-04-24T14:19:42;11.50;;;7.40;;
76336;SDS011;65157;50.082;18.178;2023-04-24T14:22:09;8.70;;;6.90;;
76336;SDS011;65157;50.082;18.178;2023-04-24T14:24:36;9.30;;;7.30;;
76336;SDS011;65157;50.082;18.178;2023-04-24T14:27:03;8.60;;;7.00;;
76336;SDS011;65157;50.082;18.178;2023-04-24T14:31:56;9.10;;;6.70;;
76336;SDS011;65157;50.082;18.178;2023-04-24T14:34:25;7.50;;;6.00;;
76336;SDS011;65157;50.082;18.178;2023-04-24T14:39:19;9.10;;;7.20;;
76336;SDS011;65157;50.082;18.178;2023-04-24T14:41:45;6.40;;;5.70;;
76336;SDS011;65157;50.082;18.178;2023-04-24T14:44:12;7.30;;;5.70;;
76336;SDS011;65157;50.082;18.178;2023-04-24T14:46:39;6.60;;;5.30;;
76336;SDS011;65157;50.082;18.178;2023-04-24T14:49:06;8.80;;;6.30;;
76336;SDS011;65157;50.082;18.178;2023-04-24T14:51:34;9.10;;;5.80;;
76336;SDS011;65157;50.082;18.178;2023-04-24T14:54:01;6.30;;;5.70;;
76336;SDS011;65157;50.082;18.178;2023-04-24T14:59:00;8.10;;;6.40;;
76336;SDS011;65157;50.082;18.178;2023-04-24T15:01:27;8.10;;;6.40;;
76336;SDS011;65157;50.082;18.178;2023-04-24T15:03:54;7.30;;;6.40;;
76336;SDS011;65157;50.082;18.178;2023-04-24T15:06:21;8.70;;;7.00;;
76336;SDS011;65157;50.082;18.178;2023-04-24T15:08:50;8.00;;;7.10;;
76336;SDS011;65157;50.082;18.178;2023-04-24T15:11:19;8.70;;;7.20;;
76336;SDS011;65157;50.082;18.178;2023-04-24T15:13:47;9.10;;;6.70;;
76336;SDS011;65157;50.082;18.178;2023-04-24T15:16:14;11.20;;;7.70;;
76336;SDS011;65157;50.082;18.178;2023-04-24T15:21:08;10.10;;;7.10;;
76336;SDS011;65157;50.082;18.178;2023-04-24T15:23:37;10.20;;;7.10;;
76336;SDS011;65157;50.082;18.178;2023-04-24T15:26:04;10.40;;;8.50;;
76336;SDS011;65157;50.082;18.178;2023-04-24T15:28:33;14.20;;;8.80;;
76336;SDS011;65157;50.082;18.178;2023-04-24T15:31:00;13.00;;;8.20;;
76336;SDS011;65157;50.082;18.178;2023-04-24T15:33:29;12.10;;;9.30;;
76336;SDS011;65157;50.082;18.178;2023-04-24T15:35:56;14.40;;;9.50;;
76336;SDS011;65157;50.082;18.178;2023-04-24T15:38:31;12.90;;;9.40;;
76336;SDS011;65157;50.082;18.178;2023-04-24T15:40:58;13.70;;;8.00;;
76336;SDS011;65157;50.082;18.178;2023-04-24T15:43:27;14.50;;;10.30;;
76336;SDS011;65157;50.082;18.178;2023-04-24T15:45:54;11.60;;;8.20;;
76336;SDS011;65157;50.082;18.178;2023-04-24T15:48:22;11.20;;;8.00;;
76336;SDS011;65157;50.082;18.178;2023-04-24T15:50:48;15.50;;;11.40;;
76336;SDS011;65157;50.082;18.178;2023-04-24T15:55:42;11.50;;;7.80;;
76336;SDS011;65157;50.082;18.178;2023-04-24T16:00:35;9.70;;;6.60;;
76336;SDS011;65157;50.082;18.178;2023-04-24T16:03:02;10.50;;;7.30;;
76336;SDS011;65157;50.082;18.178;2023-04-24T16:05:29;7.50;;;6.70;;
76336;SDS011;65157;50.082;18.178;2023-04-24T16:07:56;7.70;;;6.50;;
76336;SDS011;65157;50.082;18.178;2023-04-24T16:10:26;10.00;;;7.60;;
76336;SDS011;65157;50.082;18.178;2023-04-24T16:12:53;11.30;;;8.30;;
76336;SDS011;65157;50.082;18.178;2023-04-24T16:15:22;11.10;;;8.20;;
76336;SDS011;65157;50.082;18.178;2023-04-24T16:17:49;11.40;;;8.60;;
76336;SDS011;65157;50.082;18.178;2023-04-24T16:20:16;10.40;;;7.80;;